createdAt,value
2019-03-24T00:01:14.850Z,114.92
2019-03-24T00:03:41.417Z,130.32
2019-03-24T00:06:08.032Z,109.52
2019-03-24T00:08:34.619Z,128.35
2019-03-24T00:11:01.225Z,129.97
2019-03-24T00:13:27.797Z,122.25
2019-03-24T00:15:54.397Z,117.47
2019-03-24T00:18:20.988Z,110.17
2019-03-24T00:20:47.584Z,98.75
2019-03-24T00:23:14.153Z,114.25
2019-03-24T00:25:40.751Z,110.78
2019-03-24T00:28:07.340Z,104.90
2019-03-24T00:30:33.934Z,101.15
2019-03-24T00:33:00.511Z,107.35
2019-03-24T00:35:27.166Z,109.67
2019-03-24T00:37:53.744Z,111.08
2019-03-24T00:40:20.439Z,96.02
2019-03-24T00:42:47.019Z,106.52
2019-03-24T00:45:13.620Z,109.90
2019-03-24T00:47:40.192Z,100.07
2019-03-24T00:50:06.776Z,106.72
2019-03-24T00:52:33.350Z,110.52
2019-03-24T00:54:59.917Z,97.35
2019-03-24T00:57:26.495Z,105.78
2019-03-24T00:59:53.073Z,96.42
2019-03-24T01:02:19.658Z,97.02
2019-03-24T01:04:46.219Z,97.60
2019-03-24T01:07:12.809Z,100.20
2019-03-24T01:09:39.380Z,103.75
2019-03-24T01:12:05.958Z,101.70
2019-03-24T01:14:32.539Z,101.60
2019-03-24T01:16:59.124Z,100.80
2019-03-24T01:19:25.697Z,97.65
2019-03-24T01:21:52.269Z,104.35
2019-03-24T01:24:18.854Z,90.30
2019-03-24T01:26:45.456Z,89.92
2019-03-24T01:29:12.035Z,95.92
2019-03-24T01:31:38.624Z,87.20
2019-03-24T01:34:05.206Z,104.00
2019-03-24T01:36:31.827Z,102.30
2019-03-24T01:38:58.395Z,89.37
2019-03-24T01:41:25.007Z,91.82
2019-03-24T01:43:51.562Z,101.65
2019-03-24T01:46:18.158Z,101.35
2019-03-24T01:48:44.735Z,97.50
2019-03-24T01:51:11.341Z,106.97
2019-03-24T01:53:37.921Z,96.32
2019-03-24T01:56:04.511Z,115.67
2019-03-24T01:58:31.085Z,121.72
2019-03-24T02:00:57.748Z,110.22
2019-03-24T02:03:24.327Z,117.08
2019-03-24T02:05:50.923Z,126.55
2019-03-24T02:08:17.504Z,117.17
2019-03-24T02:10:44.080Z,116.95
2019-03-24T02:13:10.656Z,125.12
2019-03-24T02:15:37.308Z,116.88
2019-03-24T02:18:03.894Z,116.75
2019-03-24T02:20:30.474Z,102.12
2019-03-24T02:22:57.045Z,105.80
2019-03-24T02:25:23.624Z,117.20
2019-03-24T02:27:50.211Z,116.08
2019-03-24T02:30:16.786Z,104.87
2019-03-24T02:32:43.361Z,99.60
2019-03-24T02:35:09.938Z,99.28
2019-03-24T02:37:36.560Z,100.82
2019-03-24T02:40:03.169Z,99.13
2019-03-24T02:42:29.733Z,93.90
2019-03-24T02:44:56.304Z,91.30
2019-03-24T02:47:22.879Z,103.30
2019-03-24T02:49:49.456Z,84.30
2019-03-24T02:52:16.031Z,88.47
2019-03-24T02:54:42.616Z,94.83
2019-03-24T02:57:09.186Z,94.58
2019-03-24T02:59:35.823Z,94.90
2019-03-24T03:02:02.452Z,93.12
2019-03-24T03:04:29.021Z,87.90
2019-03-24T03:06:55.627Z,92.20
2019-03-24T03:09:22.202Z,107.50
2019-03-24T03:11:48.811Z,87.62
2019-03-24T03:14:15.394Z,89.75
2019-03-24T03:16:42.033Z,98.62
2019-03-24T03:19:08.597Z,94.03
2019-03-24T03:21:35.206Z,103.92
2019-03-24T03:24:01.779Z,111.83
2019-03-24T03:26:28.401Z,103.92
2019-03-24T03:28:54.977Z,94.70
2019-03-24T03:31:21.569Z,83.65
2019-03-24T03:33:48.149Z,92.40
2019-03-24T03:36:14.789Z,83.03
2019-03-24T03:38:41.356Z,87.97
2019-03-24T03:41:07.938Z,96.10
2019-03-24T03:43:34.686Z,96.70
2019-03-24T03:46:01.273Z,77.75
2019-03-24T03:48:27.832Z,89.90
2019-03-24T03:50:54.416Z,89.00
2019-03-24T03:53:21.026Z,88.15
2019-03-24T03:55:47.596Z,89.83
2019-03-24T03:58:15.215Z,96.75
2019-03-24T04:00:41.789Z,81.47
2019-03-24T04:03:08.399Z,86.15
2019-03-24T04:05:34.977Z,84.22
2019-03-24T04:08:01.587Z,82.95
2019-03-24T04:10:28.158Z,90.28
2019-03-24T04:12:54.759Z,85.07
2019-03-24T04:15:21.342Z,76.17
2019-03-24T04:17:47.941Z,80.95
2019-03-24T04:20:14.663Z,88.12
2019-03-24T04:22:41.318Z,77.45
2019-03-24T04:25:07.902Z,76.75
2019-03-24T04:27:34.518Z,83.47
2019-03-24T04:30:01.093Z,72.97
2019-03-24T04:32:27.694Z,81.55
2019-03-24T04:34:54.277Z,86.53
2019-03-24T04:37:20.900Z,77.90
2019-03-24T04:39:47.489Z,75.37
2019-03-24T04:42:14.179Z,76.22
2019-03-24T04:44:40.761Z,87.10
2019-03-24T04:47:16.367Z,72.25
2019-03-24T04:49:35.657Z,84.58
2019-03-24T04:52:02.284Z,79.87
2019-03-24T04:54:28.868Z,75.20
2019-03-24T04:56:55.440Z,84.95
2019-03-24T04:59:22.031Z,94.32
2019-03-24T05:01:48.608Z,87.12
2019-03-24T05:04:15.192Z,80.67
2019-03-24T05:06:41.767Z,75.65
2019-03-24T05:09:08.346Z,79.62
2019-03-24T05:11:34.935Z,82.50
2019-03-24T05:14:01.517Z,80.00
2019-03-24T05:16:28.097Z,79.62
2019-03-24T05:18:54.684Z,74.40
2019-03-24T05:21:21.258Z,77.22
2019-03-24T05:23:47.848Z,75.15
2019-03-24T05:26:14.457Z,84.20
2019-03-24T05:28:41.034Z,76.05
2019-03-24T05:31:07.613Z,73.42
2019-03-24T05:33:34.188Z,72.58
2019-03-24T05:36:00.766Z,69.50
2019-03-24T05:38:27.345Z,62.33
2019-03-24T05:40:53.923Z,70.20
2019-03-24T05:43:20.550Z,68.90
2019-03-24T05:45:47.141Z,61.53
2019-03-24T05:48:13.733Z,64.85
2019-03-24T05:50:40.317Z,68.65
2019-03-24T05:53:06.896Z,53.10
2019-03-24T05:55:33.477Z,55.48
2019-03-24T05:58:00.174Z,60.10
2019-03-24T06:00:26.744Z,48.73
2019-03-24T06:02:53.326Z,52.58
2019-03-24T06:05:19.895Z,51.23
2019-03-24T06:07:46.490Z,51.40
2019-03-24T06:10:13.084Z,47.60
2019-03-24T06:12:39.652Z,46.15
2019-03-24T06:15:06.235Z,44.60
2019-03-24T06:17:32.835Z,46.95
2019-03-24T06:19:59.423Z,40.25
2019-03-24T06:22:26.001Z,46.73
2019-03-24T06:24:52.614Z,45.45
2019-03-24T06:27:19.191Z,43.00
2019-03-24T06:29:45.792Z,40.60
2019-03-24T06:32:12.371Z,43.40
2019-03-24T06:34:38.976Z,40.50
2019-03-24T06:37:05.550Z,44.18
2019-03-24T06:39:32.176Z,45.03
2019-03-24T06:41:58.753Z,45.03
2019-03-24T06:44:25.362Z,41.70
2019-03-24T06:46:51.930Z,34.53
2019-03-24T06:49:18.529Z,37.05
2019-03-24T06:51:45.109Z,38.90
2019-03-24T06:54:11.734Z,36.13
2019-03-24T06:56:38.309Z,34.27
2019-03-24T06:59:04.926Z,32.30
2019-03-24T07:01:31.497Z,34.75
2019-03-24T07:03:58.104Z,30.65
2019-03-24T07:06:24.682Z,31.48
2019-03-24T07:08:51.312Z,30.50
2019-03-24T07:11:17.959Z,27.37
2019-03-24T07:13:44.602Z,26.10
2019-03-24T07:16:11.185Z,23.83
2019-03-24T07:18:37.815Z,26.93
2019-03-24T07:21:04.391Z,31.75
2019-03-24T07:23:31.007Z,23.75
2019-03-24T07:25:57.578Z,26.40
2019-03-24T07:28:25.043Z,26.15
2019-03-24T07:30:51.750Z,24.27
2019-03-24T07:33:18.382Z,20.75
2019-03-24T07:35:44.948Z,27.42
2019-03-24T07:38:11.586Z,24.32
2019-03-24T07:40:38.173Z,26.60
2019-03-24T07:43:04.748Z,25.50
2019-03-24T07:45:31.320Z,25.72
2019-03-24T07:47:57.898Z,22.95
2019-03-24T07:50:24.480Z,26.02
2019-03-24T07:52:51.061Z,26.42
2019-03-24T07:55:17.641Z,28.32
2019-03-24T07:57:44.225Z,23.55
2019-03-24T08:00:10.805Z,25.92
2019-03-24T08:02:37.385Z,19.75
2019-03-24T08:05:03.985Z,20.23
2019-03-24T08:07:30.576Z,20.00
2019-03-24T08:09:57.199Z,23.73
2019-03-24T08:12:23.784Z,25.52
2019-03-24T08:14:50.359Z,20.02
2019-03-24T08:17:16.940Z,22.80
2019-03-24T08:19:43.518Z,25.05
2019-03-24T08:22:10.094Z,25.55
2019-03-24T08:24:36.671Z,20.90
2019-03-24T08:27:03.326Z,22.77
2019-03-24T08:29:29.914Z,25.08
2019-03-24T08:31:56.502Z,22.15
2019-03-24T08:34:23.070Z,23.65
2019-03-24T08:36:49.656Z,24.60
2019-03-24T08:39:16.232Z,21.20
2019-03-24T08:41:42.802Z,22.30
2019-03-24T08:44:09.387Z,24.67
2019-03-24T08:46:35.972Z,25.20
2019-03-24T08:49:02.593Z,21.65
2019-03-24T08:51:29.151Z,20.23
2019-03-24T08:53:55.750Z,19.75
2019-03-24T08:56:22.331Z,19.95
2019-03-24T08:58:48.942Z,21.02
2019-03-24T09:01:15.517Z,23.80
2019-03-24T09:03:42.197Z,20.40
2019-03-24T09:06:08.789Z,22.87
2019-03-24T09:08:35.453Z,22.90
2019-03-24T09:11:02.033Z,22.32
2019-03-24T09:13:28.606Z,24.15
2019-03-24T09:15:55.188Z,19.98
2019-03-24T09:18:21.778Z,24.15
2019-03-24T09:20:48.366Z,21.17
2019-03-24T09:23:14.947Z,25.70
2019-03-24T09:25:41.518Z,19.73
2019-03-24T09:28:09.197Z,18.12
2019-03-24T09:30:36.116Z,21.87
2019-03-24T09:33:02.724Z,21.30
2019-03-24T09:35:29.334Z,30.70
2019-03-24T09:37:55.901Z,23.90
2019-03-24T09:40:22.517Z,20.90
2019-03-24T09:42:49.092Z,23.55
2019-03-24T09:45:15.762Z,23.20
2019-03-24T09:47:42.379Z,22.52
2019-03-24T09:50:09.034Z,19.42
2019-03-24T09:52:35.612Z,25.17
2019-03-24T09:55:02.243Z,19.62
2019-03-24T09:57:28.814Z,18.50
2019-03-24T09:59:55.435Z,21.68
2019-03-24T10:02:22.015Z,16.35
2019-03-24T10:04:48.627Z,19.17
2019-03-24T10:07:15.213Z,26.20
2019-03-24T10:09:41.825Z,20.97
2019-03-24T10:12:08.429Z,18.75
2019-03-24T10:14:35.036Z,19.52
2019-03-24T10:17:01.720Z,19.10
2019-03-24T10:19:28.344Z,22.42
2019-03-24T10:21:54.921Z,24.80
2019-03-24T10:24:21.537Z,22.52
2019-03-24T10:26:48.114Z,24.95
2019-03-24T10:29:14.724Z,18.37
2019-03-24T10:31:42.627Z,22.55
2019-03-24T10:34:09.644Z,16.12
2019-03-24T10:36:36.216Z,20.48
2019-03-24T10:39:02.800Z,19.85
2019-03-24T10:41:29.392Z,20.95
2019-03-24T10:43:55.963Z,18.65
2019-03-24T10:46:22.553Z,21.37
2019-03-24T10:48:49.169Z,19.57
2019-03-24T10:51:15.759Z,23.20
2019-03-24T10:53:42.332Z,19.48
2019-03-24T10:56:08.915Z,29.98
2019-03-24T10:58:35.580Z,29.67
2019-03-24T11:01:02.206Z,25.27
2019-03-24T11:03:28.783Z,21.93
2019-03-24T11:05:55.370Z,21.73
2019-03-24T11:08:21.955Z,18.70
2019-03-24T11:10:48.538Z,16.90
2019-03-24T11:13:15.114Z,17.23
2019-03-24T11:15:41.691Z,17.77
2019-03-24T11:18:08.261Z,19.07
2019-03-24T11:20:34.879Z,18.95
2019-03-24T11:23:01.455Z,20.65
2019-03-24T11:25:28.066Z,18.35
2019-03-24T11:27:54.639Z,16.35
2019-03-24T11:30:21.251Z,16.90
2019-03-24T11:32:47.832Z,17.92
2019-03-24T11:35:14.421Z,22.20
2019-03-24T11:37:41.007Z,17.92
2019-03-24T11:40:07.626Z,18.57
2019-03-24T11:42:34.195Z,19.05
2019-03-24T11:45:00.866Z,17.15
2019-03-24T11:47:27.565Z,12.70
2019-03-24T11:49:54.174Z,15.90
2019-03-24T11:52:23.003Z,12.75
2019-03-24T11:54:49.593Z,15.18
2019-03-24T11:57:16.164Z,13.18
2019-03-24T11:59:42.739Z,10.82
2019-03-24T12:02:09.323Z,12.82
2019-03-24T12:04:35.902Z,12.95
2019-03-24T12:07:02.484Z,13.00
2019-03-24T12:09:29.070Z,13.28
2019-03-24T12:11:55.640Z,13.48
2019-03-24T12:14:22.236Z,11.85
2019-03-24T12:16:48.810Z,11.57
2019-03-24T12:19:15.390Z,13.65
2019-03-24T12:21:41.970Z,10.78
2019-03-24T12:24:08.540Z,12.78
2019-03-24T12:26:35.125Z,11.90
2019-03-24T12:29:01.687Z,12.37
2019-03-24T12:31:28.266Z,13.45
2019-03-24T12:33:54.829Z,10.53
2019-03-24T12:36:21.422Z,16.62
2019-03-24T12:38:47.987Z,10.65
2019-03-24T12:41:14.593Z,9.75
2019-03-24T12:43:41.189Z,9.50
2019-03-24T12:46:07.809Z,8.83
2019-03-24T12:48:34.382Z,9.45
2019-03-24T12:51:00.968Z,16.02
2019-03-24T12:53:27.547Z,9.98
2019-03-24T12:55:54.157Z,9.90
2019-03-24T12:58:20.752Z,10.60
2019-03-24T13:00:47.358Z,9.70
2019-03-24T13:03:13.916Z,11.55
2019-03-24T13:05:40.491Z,8.75
2019-03-24T13:08:07.059Z,8.30
2019-03-24T13:10:33.631Z,8.20
2019-03-24T13:13:00.202Z,8.83
2019-03-24T13:15:26.780Z,9.40
2019-03-24T13:17:53.351Z,9.63
2019-03-24T13:20:35.239Z,7.62
2019-03-24T13:22:48.234Z,8.30
2019-03-24T13:25:14.801Z,13.08
2019-03-24T13:27:41.422Z,9.35
2019-03-24T13:30:08.034Z,9.95
2019-03-24T13:32:34.647Z,11.15
2019-03-24T13:35:01.219Z,12.35
2019-03-24T13:37:27.803Z,9.88
2019-03-24T13:39:54.368Z,8.68
2019-03-24T13:42:20.981Z,16.17
2019-03-24T13:44:47.547Z,10.75
2019-03-24T13:47:14.142Z,9.53
2019-03-24T13:49:40.702Z,9.30
2019-03-24T13:52:07.295Z,10.40
2019-03-24T13:54:33.854Z,9.05
2019-03-24T13:57:00.477Z,12.90
2019-03-24T13:59:27.053Z,10.05
2019-03-24T14:01:53.638Z,10.05
2019-03-24T14:04:20.206Z,9.63
2019-03-24T14:06:46.801Z,10.48
2019-03-24T14:09:13.370Z,9.28
2019-03-24T14:11:39.983Z,10.95
2019-03-24T14:14:06.563Z,13.72
2019-03-24T14:16:33.156Z,10.65
2019-03-24T14:18:59.828Z,10.28
2019-03-24T14:21:26.421Z,14.13
2019-03-24T14:23:53.027Z,10.35
2019-03-24T14:26:19.591Z,9.60
2019-03-24T14:28:46.167Z,9.55
2019-03-24T14:31:12.737Z,8.80
2019-03-24T14:33:39.314Z,9.03
2019-03-24T14:36:05.883Z,10.30
2019-03-24T14:38:32.634Z,9.83
2019-03-24T14:40:59.205Z,9.50
2019-03-24T14:43:25.774Z,8.70
2019-03-24T14:45:52.342Z,8.85
2019-03-24T14:48:18.909Z,10.15
2019-03-24T14:50:54.079Z,9.73
2019-03-24T14:53:13.793Z,10.18
2019-03-24T14:55:40.365Z,10.45
2019-03-24T14:58:06.934Z,10.75
2019-03-24T15:00:33.510Z,10.43
2019-03-24T15:03:00.079Z,8.03
2019-03-24T15:05:26.641Z,13.40
2019-03-24T15:07:53.220Z,9.90
2019-03-24T15:10:19.795Z,9.15
2019-03-24T15:12:46.362Z,9.13
2019-03-24T15:15:12.933Z,8.23
2019-03-24T15:17:39.509Z,10.65
2019-03-24T15:20:06.090Z,10.70
2019-03-24T15:22:32.659Z,10.55
2019-03-24T15:24:59.229Z,8.40
2019-03-24T15:27:25.809Z,14.80
2019-03-24T15:29:52.381Z,16.62
2019-03-24T15:32:18.950Z,12.73
2019-03-24T15:34:45.528Z,16.15
2019-03-24T15:37:12.103Z,16.95
2019-03-24T15:39:38.672Z,22.13
2019-03-24T15:42:05.250Z,12.05
2019-03-24T15:44:31.830Z,13.15
2019-03-24T15:46:58.403Z,12.70
2019-03-24T15:49:24.995Z,11.75
2019-03-24T15:51:51.562Z,14.15
2019-03-24T15:54:18.182Z,9.40
2019-03-24T15:56:44.772Z,9.08
2019-03-24T15:59:11.383Z,11.53
2019-03-24T16:01:37.980Z,12.63
2019-03-24T16:04:04.594Z,13.08
2019-03-24T16:06:31.184Z,10.23
2019-03-24T16:08:57.779Z,10.00
2019-03-24T16:11:24.352Z,12.15
2019-03-24T16:13:50.966Z,10.88
2019-03-24T16:16:17.543Z,10.53
2019-03-24T16:18:44.154Z,11.45
2019-03-24T16:21:10.723Z,14.18
2019-03-24T16:23:37.386Z,9.08
2019-03-24T16:26:04.017Z,10.08
2019-03-24T16:28:30.618Z,16.10
2019-03-24T16:30:57.201Z,18.35
2019-03-24T16:33:23.804Z,17.60
2019-03-24T16:35:50.458Z,17.42
2019-03-24T16:38:17.094Z,18.15
2019-03-24T16:40:43.675Z,20.30
2019-03-24T16:43:11.365Z,17.80
2019-03-24T16:45:38.037Z,21.33
2019-03-24T16:48:04.626Z,20.68
2019-03-24T16:50:31.197Z,27.07
2019-03-24T16:52:57.800Z,30.43
2019-03-24T16:55:24.369Z,27.67
2019-03-24T16:57:50.984Z,35.60
2019-03-24T17:00:18.616Z,34.10
2019-03-24T17:02:45.222Z,30.60
2019-03-24T17:05:11.802Z,46.37
2019-03-24T17:07:38.393Z,29.50
2019-03-24T17:10:04.967Z,31.68
2019-03-24T17:12:31.540Z,21.02
2019-03-24T17:14:58.126Z,21.68
2019-03-24T17:17:24.707Z,17.80
2019-03-24T17:19:51.276Z,23.52
2019-03-24T17:22:17.850Z,24.27
2019-03-24T17:24:44.450Z,23.90
2019-03-24T17:27:11.029Z,27.35
2019-03-24T17:29:37.620Z,26.20
2019-03-24T17:32:04.190Z,31.73
2019-03-24T17:34:30.767Z,28.45
2019-03-24T17:36:57.437Z,27.52
2019-03-24T17:39:23.985Z,31.33
2019-03-24T17:41:50.585Z,31.93
2019-03-24T17:44:17.159Z,31.52
2019-03-24T17:46:43.779Z,27.20
2019-03-24T17:49:10.385Z,28.62
2019-03-24T17:51:36.949Z,33.83
2019-03-24T17:54:03.531Z,46.65
2019-03-24T17:56:30.105Z,55.30
2019-03-24T17:58:56.684Z,67.70
2019-03-24T18:01:23.255Z,69.37
2019-03-24T18:03:49.829Z,75.65
2019-03-24T18:06:16.400Z,90.65
2019-03-24T18:08:42.981Z,84.07
2019-03-24T18:11:09.546Z,84.40
2019-03-24T18:13:36.126Z,77.35
2019-03-24T18:16:02.732Z,76.67
2019-03-24T18:18:29.455Z,58.17
2019-03-24T18:20:56.655Z,68.72
2019-03-24T18:23:23.269Z,65.10
2019-03-24T18:25:49.843Z,67.78
2019-03-24T18:28:16.453Z,88.87
2019-03-24T18:30:43.024Z,85.22
2019-03-24T18:33:09.628Z,65.75
2019-03-24T18:35:36.202Z,67.32
2019-03-24T18:38:02.815Z,69.92
2019-03-24T18:40:29.395Z,101.25
2019-03-24T18:42:56.033Z,117.82
2019-03-24T18:45:22.607Z,107.72
2019-03-24T18:47:49.234Z,106.67
2019-03-24T18:50:15.828Z,100.72
2019-03-24T18:52:42.402Z,112.75
2019-03-24T18:55:08.995Z,108.25
2019-03-24T18:57:35.574Z,97.53
2019-03-24T19:00:02.198Z,95.70
2019-03-24T19:02:28.785Z,94.70
2019-03-24T19:04:55.396Z,82.12
2019-03-24T19:07:21.970Z,82.80
2019-03-24T19:09:48.561Z,78.97
2019-03-24T19:12:15.143Z,77.45
2019-03-24T19:14:41.756Z,82.85
2019-03-24T19:17:10.125Z,82.40
2019-03-24T19:19:36.659Z,76.87
2019-03-24T19:22:03.265Z,80.45
2019-03-24T19:24:29.863Z,79.03
2019-03-24T19:26:56.435Z,79.75
2019-03-24T19:29:23.051Z,90.17
2019-03-24T19:31:49.636Z,98.92
2019-03-24T19:34:16.233Z,78.57
2019-03-24T19:36:42.840Z,81.12
2019-03-24T19:39:09.450Z,87.30
2019-03-24T19:41:36.040Z,71.50
2019-03-24T19:44:02.736Z,84.22
2019-03-24T19:46:29.320Z,84.77
2019-03-24T19:48:55.908Z,89.62
2019-03-24T19:51:22.486Z,87.80
2019-03-24T19:53:49.068Z,84.05
2019-03-24T19:56:15.652Z,82.25
2019-03-24T19:58:42.239Z,85.07
2019-03-24T20:01:08.814Z,96.12
2019-03-24T20:03:36.394Z,88.50
2019-03-24T20:06:02.974Z,90.97
2019-03-24T20:08:29.546Z,96.30
2019-03-24T20:10:57.124Z,80.32
2019-03-24T20:13:23.702Z,80.67
2019-03-24T20:15:50.281Z,94.28
2019-03-24T20:18:16.854Z,97.88
2019-03-24T20:20:43.451Z,85.00
2019-03-24T20:23:10.021Z,85.42
2019-03-24T20:25:36.594Z,84.72
2019-03-24T20:28:03.177Z,78.83
2019-03-24T20:30:29.789Z,90.92
2019-03-24T20:32:56.366Z,88.35
2019-03-24T20:35:22.974Z,88.45
2019-03-24T20:37:49.557Z,87.10
2019-03-24T20:40:16.154Z,93.80
2019-03-24T20:42:42.737Z,93.92
2019-03-24T20:45:09.348Z,105.85
2019-03-24T20:47:35.929Z,104.80
2019-03-24T20:50:03.804Z,105.55
2019-03-24T20:52:30.508Z,97.25
2019-03-24T20:54:57.121Z,122.37
2019-03-24T20:57:23.701Z,123.40
2019-03-24T20:59:52.092Z,117.45
2019-03-24T21:02:18.621Z,134.60
2019-03-24T21:04:45.368Z,116.12
2019-03-24T21:07:12.002Z,121.80
2019-03-24T21:09:39.684Z,123.02
2019-03-24T21:12:06.248Z,132.90
2019-03-24T21:14:32.829Z,128.72
2019-03-24T21:16:59.409Z,124.12
2019-03-24T21:19:26.005Z,130.80
2019-03-24T21:21:52.604Z,132.63
2019-03-24T21:24:19.186Z,154.27
2019-03-24T21:26:45.881Z,129.95
2019-03-24T21:29:12.471Z,136.55
2019-03-24T21:31:39.052Z,139.77
2019-03-24T21:34:05.645Z,139.35
2019-03-24T21:36:32.212Z,126.42
2019-03-24T21:38:58.824Z,144.97
2019-03-24T21:41:25.434Z,163.18
2019-03-24T21:43:52.012Z,160.25
2019-03-24T21:46:18.642Z,166.07
2019-03-24T21:48:45.212Z,173.80
2019-03-24T21:51:11.836Z,197.10
2019-03-24T21:53:40.819Z,199.10
2019-03-24T21:56:06.740Z,189.43
2019-03-24T21:58:33.316Z,169.60
2019-03-24T22:00:59.926Z,159.75
2019-03-24T22:03:26.506Z,160.55
2019-03-24T22:05:53.127Z,158.32
2019-03-24T22:08:19.715Z,173.15
2019-03-24T22:10:46.322Z,147.75
2019-03-24T22:13:12.909Z,146.43
2019-03-24T22:15:39.515Z,150.85
2019-03-24T22:18:06.089Z,158.93
2019-03-24T22:20:32.704Z,154.75
2019-03-24T22:22:59.269Z,145.50
2019-03-24T22:25:25.891Z,134.32
2019-03-24T22:27:52.470Z,130.27
2019-03-24T22:30:19.045Z,135.45
2019-03-24T22:32:45.618Z,138.40
2019-03-24T22:35:12.189Z,86.02
2019-03-24T22:37:38.767Z,80.65
2019-03-24T22:40:05.347Z,84.13
2019-03-24T22:42:31.927Z,78.65
2019-03-24T22:44:58.499Z,57.55
2019-03-24T22:47:25.094Z,25.52
2019-03-24T22:49:51.665Z,13.62
2019-03-24T22:52:18.280Z,9.58
2019-03-24T22:54:44.894Z,9.03
2019-03-24T22:57:11.495Z,10.40
2019-03-24T22:59:38.073Z,15.50
2019-03-24T23:02:04.680Z,19.02
2019-03-24T23:04:31.260Z,21.50
2019-03-24T23:06:57.864Z,25.50
2019-03-24T23:09:24.439Z,26.30
2019-03-24T23:11:51.092Z,24.63
2019-03-24T23:14:17.671Z,18.90
2019-03-24T23:16:44.277Z,15.13
2019-03-24T23:19:10.865Z,14.07
2019-03-24T23:21:37.465Z,14.07
2019-03-24T23:24:14.967Z,17.95
2019-03-24T23:26:32.368Z,13.53
2019-03-24T23:28:58.938Z,13.62
2019-03-24T23:31:25.738Z,15.28
2019-03-24T23:33:52.313Z,14.63
2019-03-24T23:36:18.926Z,15.05
2019-03-24T23:38:45.501Z,15.13
2019-03-24T23:41:12.070Z,12.03
2019-03-24T23:43:38.647Z,16.85
2019-03-24T23:46:05.229Z,14.43
2019-03-24T23:48:31.800Z,14.23
2019-03-24T23:50:58.427Z,13.40
2019-03-24T23:53:25.009Z,11.55
2019-03-24T23:55:51.660Z,12.13
2019-03-24T23:58:18.235Z,14.43
